createdAt,value
2019-05-14T00:00:36.738Z,1.70
2019-05-14T00:03:08.073Z,1.90
2019-05-14T00:05:44.477Z,2.20
2019-05-14T00:08:17.454Z,2.00
2019-05-14T00:10:51.779Z,2.25
2019-05-14T00:13:21.630Z,2.33
2019-05-14T00:15:52.699Z,2.20
2019-05-14T00:18:26.813Z,1.62
2019-05-14T00:20:56.941Z,2.10
2019-05-14T00:23:27.013Z,1.65
2019-05-14T00:26:01.683Z,1.95
2019-05-14T00:28:32.065Z,1.60
2019-05-14T00:31:08.544Z,2.00
2019-05-14T00:33:44.617Z,2.05
2019-05-14T00:36:18.149Z,2.50
2019-05-14T00:38:48.225Z,2.05
2019-05-14T00:41:21.307Z,2.00
2019-05-14T00:43:52.874Z,1.87
2019-05-14T00:46:24.933Z,1.90
2019-05-14T00:48:55.005Z,2.20
2019-05-14T00:51:25.077Z,2.00
2019-05-14T00:54:03.210Z,2.45
2019-05-14T00:56:33.297Z,2.67
2019-05-14T00:59:03.365Z,2.25
2019-05-14T01:01:33.470Z,2.20
2019-05-14T01:04:03.538Z,2.10
2019-05-14T01:06:33.621Z,2.37
2019-05-14T01:09:11.447Z,2.20
2019-05-14T01:11:51.234Z,2.15
2019-05-14T01:14:21.466Z,2.17
2019-05-14T01:17:03.650Z,2.30
2019-05-14T01:19:48.077Z,2.60
2019-05-14T01:22:21.101Z,2.00
2019-05-14T01:24:52.276Z,2.25
2019-05-14T01:27:23.301Z,2.00
2019-05-14T01:29:53.385Z,2.60
2019-05-14T01:32:23.593Z,2.45
2019-05-14T01:35:07.723Z,2.50
2019-05-14T01:37:37.798Z,2.60
2019-05-14T01:40:11.232Z,2.22
2019-05-14T01:42:41.866Z,2.65
2019-05-14T01:45:23.955Z,2.08
2019-05-14T01:47:43.929Z,2.10
2019-05-14T01:50:14.170Z,1.90
2019-05-14T01:52:44.233Z,2.37
2019-05-14T01:55:17.368Z,2.20
2019-05-14T01:58:06.789Z,2.12
2019-05-14T02:00:36.869Z,2.12
2019-05-14T02:03:07.946Z,2.60
2019-05-14T02:05:38.026Z,2.25
2019-05-14T02:08:08.098Z,2.58
2019-05-14T02:10:38.174Z,2.10
2019-05-14T02:13:16.297Z,2.17
2019-05-14T02:15:48.355Z,2.12
2019-05-14T02:18:21.594Z,1.90
2019-05-14T02:20:52.074Z,2.47
2019-05-14T02:23:22.830Z,2.02
2019-05-14T02:25:53.864Z,2.50
2019-05-14T02:28:24.902Z,2.35
2019-05-14T02:30:59.018Z,2.00
2019-05-14T02:33:30.595Z,2.50
2019-05-14T02:36:00.453Z,1.60
2019-05-14T02:38:32.649Z,1.80
2019-05-14T02:41:02.810Z,1.85
2019-05-14T02:43:32.878Z,1.60
2019-05-14T02:46:11.927Z,1.75
2019-05-14T02:48:35.070Z,1.90
2019-05-14T02:51:05.172Z,1.80
2019-05-14T02:53:39.364Z,1.77
2019-05-14T02:56:10.566Z,1.85
2019-05-14T02:58:42.591Z,1.70
2019-05-14T03:01:12.674Z,1.70
2019-05-14T03:03:42.776Z,1.40
2019-05-14T03:06:12.923Z,2.12
2019-05-14T03:08:43.000Z,2.10
2019-05-14T03:11:16.277Z,1.90
2019-05-14T03:13:54.499Z,1.75
2019-05-14T03:16:30.867Z,1.50
2019-05-14T03:18:59.559Z,1.90
2019-05-14T03:21:30.491Z,2.05
2019-05-14T03:24:01.133Z,1.90
2019-05-14T03:26:32.146Z,2.27
2019-05-14T03:29:05.371Z,2.20
2019-05-14T03:31:35.451Z,1.80
2019-05-14T03:34:05.601Z,2.20
2019-05-14T03:36:35.975Z,2.12
2019-05-14T03:39:10.750Z,2.95
2019-05-14T03:41:42.892Z,2.02
2019-05-14T03:44:12.979Z,2.50
2019-05-14T03:46:51.213Z,2.20
2019-05-14T03:49:15.102Z,1.70
2019-05-14T03:51:45.199Z,2.05
2019-05-14T03:54:19.457Z,1.80
2019-05-14T03:56:49.779Z,2.65
2019-05-14T03:59:23.473Z,1.60
2019-05-14T04:01:54.483Z,2.08
2019-05-14T04:04:29.890Z,2.20
2019-05-14T04:07:02.167Z,3.00
2019-05-14T04:09:34.945Z,1.87
2019-05-14T04:12:23.787Z,2.00
2019-05-14T04:14:59.621Z,2.42
2019-05-14T04:17:40.997Z,2.10
2019-05-14T04:20:09.662Z,1.90
2019-05-14T04:22:41.702Z,2.40
2019-05-14T04:25:14.826Z,2.12
2019-05-14T04:27:49.560Z,2.30
2019-05-14T04:30:24.053Z,2.72
2019-05-14T04:32:55.683Z,2.00
2019-05-14T04:35:29.656Z,2.83
2019-05-14T04:38:04.599Z,2.25
2019-05-14T04:40:34.698Z,2.08
2019-05-14T04:43:09.978Z,2.72
2019-05-14T04:45:39.552Z,2.58
2019-05-14T04:48:27.344Z,2.60
2019-05-14T04:50:45.765Z,2.10
2019-05-14T04:53:19.469Z,2.33
2019-05-14T04:55:49.735Z,2.60
2019-05-14T04:58:21.664Z,3.17
2019-05-14T05:00:51.829Z,2.85
2019-05-14T05:03:21.933Z,3.02
2019-05-14T05:05:52.010Z,3.15
2019-05-14T05:08:35.039Z,2.65
2019-05-14T05:11:09.400Z,3.58
2019-05-14T05:13:39.986Z,2.60
2019-05-14T05:16:10.239Z,2.30
2019-05-14T05:18:41.301Z,2.15
2019-05-14T05:21:14.250Z,2.47
2019-05-14T05:23:44.315Z,1.85
2019-05-14T05:26:18.521Z,2.00
2019-05-14T05:29:03.549Z,2.37
2019-05-14T05:31:29.803Z,2.67
2019-05-14T05:33:59.887Z,2.55
2019-05-14T05:36:30.914Z,2.62
2019-05-14T05:39:11.482Z,2.30
2019-05-14T05:41:44.582Z,2.92
2019-05-14T05:44:15.635Z,2.58
2019-05-14T05:46:45.741Z,2.42
2019-05-14T05:49:20.879Z,2.40
2019-05-14T05:51:54.995Z,2.30
2019-05-14T05:54:25.095Z,1.92
2019-05-14T05:56:55.166Z,2.40
2019-05-14T05:59:25.258Z,2.17
2019-05-14T06:01:58.653Z,2.20
2019-05-14T06:04:35.502Z,2.50
2019-05-14T06:07:09.716Z,1.82
2019-05-14T06:09:39.815Z,1.95
2019-05-14T06:12:10.894Z,2.00
2019-05-14T06:14:40.974Z,2.10
2019-05-14T06:17:19.152Z,2.70
2019-05-14T06:19:49.559Z,2.50
2019-05-14T06:22:19.644Z,2.62
2019-05-14T06:24:51.744Z,2.65
2019-05-14T06:27:35.294Z,2.00
2019-05-14T06:30:10.495Z,2.67
2019-05-14T06:32:41.547Z,3.07
2019-05-14T06:35:12.562Z,2.70
2019-05-14T06:37:45.783Z,3.27
2019-05-14T06:40:19.123Z,2.23
2019-05-14T06:42:51.525Z,1.90
2019-05-14T06:45:24.348Z,2.20
2019-05-14T06:48:04.583Z,2.47
2019-05-14T06:50:34.712Z,2.15
2019-05-14T06:53:04.767Z,2.00
2019-05-14T06:55:34.870Z,2.23
2019-05-14T06:58:05.095Z,2.40
2019-05-14T07:00:35.242Z,2.23
2019-05-14T07:03:14.398Z,2.83
2019-05-14T07:05:45.406Z,2.10
2019-05-14T07:08:35.155Z,2.70
2019-05-14T07:11:05.258Z,2.40
2019-05-14T07:13:49.130Z,2.07
2019-05-14T07:16:21.264Z,1.80
2019-05-14T07:18:54.188Z,2.63
2019-05-14T07:21:23.169Z,1.90
2019-05-14T07:23:53.251Z,2.60
2019-05-14T07:26:23.330Z,2.80
2019-05-14T07:28:53.451Z,2.07
2019-05-14T07:31:38.521Z,2.20
2019-05-14T07:34:14.874Z,2.13
2019-05-14T07:36:44.962Z,1.50
2019-05-14T07:39:15.074Z,2.63
2019-05-14T07:41:48.376Z,2.30
2019-05-14T07:44:21.634Z,2.10
2019-05-14T07:46:52.611Z,2.27
2019-05-14T07:49:24.034Z,2.10
2019-05-14T07:51:55.158Z,2.43
2019-05-14T07:54:25.262Z,2.07
2019-05-14T07:56:59.452Z,1.63
2019-05-14T07:59:29.542Z,1.63
2019-05-14T08:01:59.640Z,2.13
2019-05-14T08:04:29.746Z,2.30
2019-05-14T08:06:59.839Z,2.27
2019-05-14T08:09:30.895Z,1.60
2019-05-14T08:12:05.659Z,2.50
2019-05-14T08:14:46.453Z,1.93
2019-05-14T08:17:10.721Z,2.07
2019-05-14T08:19:40.876Z,1.97
2019-05-14T08:22:10.997Z,2.00
2019-05-14T08:24:41.086Z,1.70
2019-05-14T08:27:11.174Z,2.37
2019-05-14T08:29:48.738Z,1.57
2019-05-14T08:32:19.277Z,2.10
2019-05-14T08:34:49.352Z,2.03
2019-05-14T08:37:19.444Z,2.13
2019-05-14T08:39:49.543Z,2.00
2019-05-14T08:42:29.092Z,1.67
2019-05-14T08:44:59.486Z,1.70
2019-05-14T08:47:41.506Z,1.60
2019-05-14T08:50:12.372Z,1.90
2019-05-14T08:52:42.471Z,1.87
2019-05-14T08:55:13.994Z,1.90
2019-05-14T08:57:54.614Z,1.87
2019-05-14T09:00:24.743Z,1.90
2019-05-14T09:02:54.832Z,2.80
2019-05-14T09:05:24.914Z,1.83
2019-05-14T09:07:59.262Z,2.30
2019-05-14T09:10:35.270Z,2.03
2019-05-14T09:13:08.608Z,2.00
2019-05-14T09:15:38.866Z,1.63
2019-05-14T09:18:11.792Z,1.80
2019-05-14T09:20:40.784Z,1.80
2019-05-14T09:23:18.715Z,1.80
2019-05-14T09:25:53.339Z,1.60
2019-05-14T09:28:23.583Z,1.90
2019-05-14T09:30:54.746Z,1.50
2019-05-14T09:33:29.690Z,1.80
2019-05-14T09:36:11.118Z,1.87
2019-05-14T09:38:42.323Z,1.70
2019-05-14T09:41:15.074Z,1.80
2019-05-14T09:43:41.798Z,1.63
2019-05-14T09:46:11.914Z,1.80
2019-05-14T09:48:42.932Z,1.57
2019-05-14T09:51:13.011Z,1.60
2019-05-14T09:53:43.095Z,2.03
2019-05-14T09:56:13.179Z,1.40
2019-05-14T09:58:51.407Z,2.10
2019-05-14T10:01:40.050Z,1.40
2019-05-14T10:04:11.012Z,1.60
2019-05-14T10:06:41.350Z,1.50
2019-05-14T10:09:11.490Z,1.50
2019-05-14T10:11:41.710Z,1.53
2019-05-14T10:14:13.791Z,2.23
2019-05-14T10:16:49.089Z,1.70
2019-05-14T10:19:22.972Z,1.80
2019-05-14T10:21:53.038Z,2.00
2019-05-14T10:24:23.126Z,1.90
2019-05-14T10:26:55.158Z,1.40
2019-05-14T10:29:25.243Z,1.57
2019-05-14T10:31:55.344Z,1.63
2019-05-14T10:34:25.464Z,1.87
2019-05-14T10:36:55.583Z,1.53
2019-05-14T10:39:25.886Z,1.40
2019-05-14T10:42:00.987Z,1.50
2019-05-14T10:44:32.032Z,1.60
2019-05-14T10:47:03.014Z,1.37
2019-05-14T10:49:33.098Z,1.43
2019-05-14T10:52:05.215Z,1.50
2019-05-14T10:54:35.294Z,1.80
2019-05-14T10:57:05.395Z,1.43
2019-05-14T10:59:35.722Z,1.50
2019-05-14T11:02:11.600Z,1.67
2019-05-14T11:04:39.094Z,1.27
2019-05-14T11:07:09.336Z,1.70
2019-05-14T11:09:39.447Z,1.40
2019-05-14T11:12:13.712Z,1.30
2019-05-14T11:14:44.719Z,1.40
2019-05-14T11:17:19.430Z,1.30
2019-05-14T11:19:48.666Z,2.00
2019-05-14T11:22:19.696Z,1.40
2019-05-14T11:24:50.679Z,1.10
2019-05-14T11:27:30.665Z,1.30
2019-05-14T11:30:05.691Z,1.40
2019-05-14T11:32:38.305Z,1.50
2019-05-14T11:35:12.885Z,1.20
2019-05-14T11:37:43.003Z,1.23
2019-05-14T11:40:13.579Z,1.33
2019-05-14T11:42:49.284Z,1.40
2019-05-14T11:45:25.639Z,1.43
2019-05-14T11:47:58.375Z,1.33
2019-05-14T11:50:30.534Z,1.10
2019-05-14T11:53:03.615Z,1.60
2019-05-14T11:55:33.703Z,1.50
2019-05-14T11:58:10.583Z,1.20
2019-05-14T12:00:40.687Z,1.03
2019-05-14T12:03:11.091Z,1.40
2019-05-14T12:05:41.175Z,1.30
2019-05-14T12:08:11.250Z,1.33
2019-05-14T12:10:41.503Z,1.60
2019-05-14T12:13:29.953Z,1.30
2019-05-14T12:16:29.086Z,1.60
2019-05-14T12:18:59.097Z,1.27
2019-05-14T12:21:29.272Z,1.60
2019-05-14T12:24:03.982Z,1.47
2019-05-14T12:26:31.207Z,1.40
2019-05-14T12:29:28.912Z,1.53
2019-05-14T12:31:59.349Z,1.37
2019-05-14T12:34:29.807Z,1.27
2019-05-14T12:37:00.689Z,1.80
2019-05-14T12:39:31.695Z,1.20
2019-05-14T12:42:01.778Z,1.47
2019-05-14T12:44:31.903Z,1.43
2019-05-14T12:47:02.000Z,1.50
2019-05-14T12:49:35.431Z,1.10
2019-05-14T12:52:21.007Z,1.20
2019-05-14T12:54:38.925Z,1.10
2019-05-14T12:57:09.303Z,1.37
2019-05-14T12:59:39.455Z,1.10
2019-05-14T13:02:15.221Z,1.40
2019-05-14T13:04:51.449Z,1.33
2019-05-14T13:07:23.476Z,1.47
2019-05-14T13:09:53.547Z,1.13
2019-05-14T13:12:25.647Z,0.93
2019-05-14T13:14:57.914Z,1.07
2019-05-14T13:17:29.011Z,1.20
2019-05-14T13:19:59.094Z,0.97
2019-05-14T13:22:42.361Z,0.97
2019-05-14T13:25:10.726Z,1.33
2019-05-14T13:27:40.924Z,1.30
2019-05-14T13:30:11.917Z,1.30
2019-05-14T13:32:42.883Z,1.33
2019-05-14T13:35:13.942Z,1.23
2019-05-14T13:37:44.219Z,1.30
2019-05-14T13:40:20.829Z,1.40
2019-05-14T13:42:51.335Z,1.57
2019-05-14T13:45:30.039Z,1.30
2019-05-14T13:47:59.213Z,1.50
2019-05-14T13:50:29.620Z,2.30
2019-05-14T13:53:12.305Z,1.37
2019-05-14T13:55:46.803Z,1.30
2019-05-14T13:58:15.083Z,1.03
2019-05-14T14:00:51.547Z,1.37
2019-05-14T14:03:19.997Z,1.10
2019-05-14T14:05:50.463Z,1.50
2019-05-14T14:08:29.222Z,1.30
2019-05-14T14:11:03.074Z,1.37
2019-05-14T14:13:31.763Z,1.27
2019-05-14T14:16:06.627Z,1.50
2019-05-14T14:18:39.508Z,1.40
2019-05-14T14:21:09.828Z,1.47
2019-05-14T14:23:39.995Z,1.30
2019-05-14T14:26:10.111Z,1.47
2019-05-14T14:28:41.070Z,2.13
2019-05-14T14:31:12.126Z,1.40
2019-05-14T14:33:42.200Z,0.97
2019-05-14T14:36:12.287Z,1.80
2019-05-14T14:38:49.138Z,1.87
2019-05-14T14:41:19.364Z,1.53
2019-05-14T14:43:54.265Z,1.50
2019-05-14T14:46:24.509Z,1.43
2019-05-14T14:48:58.941Z,0.93
2019-05-14T14:51:30.419Z,1.30
2019-05-14T14:54:15.720Z,1.43
2019-05-14T14:56:43.507Z,1.03
2019-05-14T14:59:18.915Z,1.00
2019-05-14T15:01:50.261Z,1.23
2019-05-14T15:04:29.884Z,1.03
2019-05-14T15:07:00.882Z,1.50
2019-05-14T15:09:32.935Z,1.50
2019-05-14T15:12:03.097Z,1.20
2019-05-14T15:14:33.278Z,1.23
2019-05-14T15:17:10.006Z,1.50
2019-05-14T15:19:40.301Z,1.50
2019-05-14T15:22:20.314Z,1.20
2019-05-14T15:24:48.760Z,1.10
2019-05-14T15:27:21.997Z,1.40
2019-05-14T15:29:53.048Z,1.40
2019-05-14T15:32:23.115Z,1.27
2019-05-14T15:34:53.152Z,1.40
2019-05-14T15:37:25.159Z,1.30
2019-05-14T15:39:55.235Z,1.40
2019-05-14T15:42:25.319Z,1.33
2019-05-14T15:44:59.716Z,1.23
2019-05-14T15:47:30.240Z,1.30
2019-05-14T15:50:00.548Z,1.00
2019-05-14T15:52:34.664Z,1.10
2019-05-14T15:55:09.714Z,1.13
2019-05-14T15:57:40.151Z,1.60
2019-05-14T16:00:11.396Z,1.03
2019-05-14T16:02:41.551Z,1.20
2019-05-14T16:05:12.757Z,1.23
2019-05-14T16:07:43.768Z,1.27
2019-05-14T16:10:21.764Z,1.33
2019-05-14T16:12:50.225Z,1.30
2019-05-14T16:15:20.461Z,1.97
2019-05-14T16:18:06.021Z,1.50
2019-05-14T16:20:22.366Z,1.63
2019-05-14T16:22:52.495Z,1.47
2019-05-14T16:25:22.551Z,1.50
2019-05-14T16:27:54.556Z,1.40
2019-05-14T16:30:31.659Z,2.30
2019-05-14T16:33:01.769Z,1.30
2019-05-14T16:35:35.403Z,1.20
2019-05-14T16:38:08.349Z,1.50
2019-05-14T16:40:39.645Z,1.40
2019-05-14T16:43:09.844Z,1.85
2019-05-14T16:45:45.767Z,1.57
2019-05-14T16:48:18.877Z,1.27
2019-05-14T16:50:50.867Z,1.37
2019-05-14T16:53:22.944Z,1.20
2019-05-14T16:55:54.945Z,1.30
2019-05-14T16:58:25.033Z,1.47
2019-05-14T17:00:55.128Z,1.60
2019-05-14T17:03:29.754Z,1.47
2019-05-14T17:06:05.920Z,1.50
2019-05-14T17:08:39.419Z,1.60
2019-05-14T17:11:09.388Z,1.22
2019-05-14T17:13:40.450Z,1.32
2019-05-14T17:16:10.538Z,2.05
2019-05-14T17:18:40.648Z,1.25
2019-05-14T17:21:11.740Z,1.20
2019-05-14T17:23:41.815Z,1.37
2019-05-14T17:26:12.795Z,1.80
2019-05-14T17:28:42.908Z,1.47
2019-05-14T17:31:13.047Z,2.15
2019-05-14T17:33:43.138Z,1.22
2019-05-14T17:36:13.251Z,1.22
2019-05-14T17:38:49.511Z,1.35
2019-05-14T17:41:19.823Z,1.40
2019-05-14T17:43:49.963Z,1.30
2019-05-14T17:46:20.055Z,1.30
2019-05-14T17:48:50.127Z,1.40
2019-05-14T17:51:24.179Z,1.30
2019-05-14T17:53:54.312Z,1.75
2019-05-14T17:56:24.411Z,1.27
2019-05-14T17:58:54.488Z,1.25
2019-05-14T18:01:24.583Z,1.45
2019-05-14T18:04:04.871Z,1.30
2019-05-14T18:06:34.988Z,1.20
2019-05-14T18:09:08.585Z,1.10
2019-05-14T18:11:40.084Z,1.10
2019-05-14T18:14:11.981Z,1.40
2019-05-14T18:16:42.181Z,1.40
2019-05-14T18:19:14.159Z,2.08
2019-05-14T18:21:44.238Z,1.72
2019-05-14T18:24:14.307Z,2.00
2019-05-14T18:26:44.387Z,2.35
2019-05-14T18:29:15.330Z,1.70
2019-05-14T18:31:52.518Z,2.00
2019-05-14T18:34:18.960Z,2.10
2019-05-14T18:36:51.000Z,1.75
2019-05-14T18:39:21.400Z,1.67
2019-05-14T18:41:51.608Z,1.42
2019-05-14T18:44:30.804Z,1.55
2019-05-14T18:47:02.824Z,1.80
2019-05-14T18:49:32.925Z,1.40
2019-05-14T18:52:04.082Z,1.47
2019-05-14T18:54:35.128Z,1.60
2019-05-14T18:57:12.116Z,1.87
2019-05-14T18:59:42.448Z,1.30
2019-05-14T19:02:13.520Z,1.80
2019-05-14T19:04:43.635Z,2.05
2019-05-14T19:07:18.684Z,2.70
2019-05-14T19:09:49.557Z,1.60
2019-05-14T19:12:19.974Z,2.02
2019-05-14T19:14:50.064Z,2.72
2019-05-14T19:17:21.468Z,2.40
2019-05-14T19:19:51.807Z,2.27
2019-05-14T19:22:33.911Z,1.77
2019-05-14T19:25:08.163Z,2.67
2019-05-14T19:27:39.283Z,6.50
2019-05-14T19:30:09.989Z,2.47
2019-05-14T19:32:42.081Z,1.50
2019-05-14T19:35:14.809Z,3.12
2019-05-14T19:37:45.348Z,2.72
2019-05-14T19:40:19.086Z,1.62
2019-05-14T19:42:49.295Z,2.65
2019-05-14T19:45:19.452Z,2.10
2019-05-14T19:47:50.439Z,2.50
2019-05-14T19:50:21.743Z,2.08
2019-05-14T19:52:53.033Z,2.20
2019-05-14T19:55:24.328Z,2.50
2019-05-14T19:57:54.395Z,2.47
2019-05-14T20:00:30.572Z,1.80
2019-05-14T20:03:02.319Z,2.25
2019-05-14T20:05:33.360Z,2.77
2019-05-14T20:08:04.480Z,2.15
2019-05-14T20:10:35.331Z,2.52
2019-05-14T20:13:05.597Z,2.42
2019-05-14T20:15:41.631Z,2.58
2019-05-14T20:18:12.656Z,3.27
2019-05-14T20:20:44.720Z,2.12
2019-05-14T20:23:18.517Z,1.95
2019-05-14T20:25:49.660Z,2.45
2019-05-14T20:28:19.760Z,2.75
2019-05-14T20:30:52.879Z,2.50
2019-05-14T20:33:22.979Z,2.33
2019-05-14T20:35:55.056Z,2.00
2019-05-14T20:38:26.307Z,2.25
2019-05-14T20:40:58.124Z,3.15
2019-05-14T20:43:29.223Z,2.05
2019-05-14T20:45:59.543Z,3.05
2019-05-14T20:48:30.487Z,2.65
2019-05-14T20:51:01.489Z,2.77
2019-05-14T20:53:31.584Z,2.70
2019-05-14T20:56:02.667Z,2.35
2019-05-14T20:58:41.789Z,2.70
2019-05-14T21:01:18.515Z,2.08
2019-05-14T21:03:49.655Z,2.40
2019-05-14T21:06:24.675Z,2.27
2019-05-14T21:08:58.462Z,2.60
2019-05-14T21:11:38.423Z,3.05
2019-05-14T21:14:18.297Z,2.30
2019-05-14T21:16:59.420Z,2.40
2019-05-14T21:19:31.887Z,2.45
2019-05-14T21:22:03.364Z,2.90
2019-05-14T21:24:38.415Z,2.33
2019-05-14T21:27:09.329Z,2.22
2019-05-14T21:29:41.243Z,2.80
2019-05-14T21:32:13.431Z,2.70
2019-05-14T21:34:49.744Z,2.90
2019-05-14T21:37:20.489Z,2.47
2019-05-14T21:40:00.827Z,2.47
2019-05-14T21:42:40.440Z,2.70
2019-05-14T21:45:17.976Z,2.90
2019-05-14T21:47:48.555Z,2.75
2019-05-14T21:50:19.483Z,2.62
2019-05-14T21:52:49.787Z,2.92
2019-05-14T21:55:20.070Z,2.33
2019-05-14T21:57:56.244Z,3.20
2019-05-14T22:00:35.101Z,3.30
2019-05-14T22:03:10.065Z,2.87
2019-05-14T22:05:40.631Z,4.20
2019-05-14T22:08:11.718Z,4.60
2019-05-14T22:10:43.820Z,5.30
2019-05-14T22:13:19.656Z,5.08
2019-05-14T22:15:58.938Z,4.53
2019-05-14T22:18:29.210Z,4.17
2019-05-14T22:21:13.471Z,4.10
2019-05-14T22:23:48.149Z,3.98
2019-05-14T22:26:28.304Z,3.58
2019-05-14T22:28:58.756Z,3.22
2019-05-14T22:31:29.093Z,4.40
2019-05-14T22:34:04.192Z,3.00
2019-05-14T22:36:35.323Z,3.58
2019-05-14T22:39:06.811Z,5.47
2019-05-14T22:41:38.291Z,5.95
2019-05-14T22:44:11.815Z,3.58
2019-05-14T22:46:41.904Z,4.83
2019-05-14T22:49:12.918Z,3.95
2019-05-14T22:51:44.991Z,3.12
2019-05-14T22:54:20.914Z,3.70
2019-05-14T22:56:51.079Z,3.58
2019-05-14T22:59:28.329Z,4.60
2019-05-14T23:01:58.995Z,4.08
2019-05-14T23:04:29.105Z,3.40
2019-05-14T23:06:59.233Z,3.45
2019-05-14T23:09:29.309Z,3.45
2019-05-14T23:12:04.471Z,4.40
2019-05-14T23:14:35.505Z,3.35
2019-05-14T23:17:19.759Z,2.98
2019-05-14T23:19:58.097Z,2.87
2019-05-14T23:22:32.218Z,3.52
2019-05-14T23:25:09.286Z,3.72
2019-05-14T23:27:39.386Z,3.17
2019-05-14T23:30:11.105Z,3.47
2019-05-14T23:32:41.167Z,3.35
2019-05-14T23:35:33.799Z,3.02
2019-05-14T23:38:04.215Z,3.58
2019-05-14T23:40:35.616Z,3.80
2019-05-14T23:43:13.475Z,3.85
2019-05-14T23:45:44.548Z,4.20
2019-05-14T23:48:14.611Z,4.33
2019-05-14T23:50:45.676Z,3.90
2019-05-14T23:53:18.606Z,3.83
2019-05-14T23:55:48.672Z,4.65
2019-05-14T23:58:29.093Z,4.70
